createdAt,value
2023-05-08T00:01:40.178Z,12.80
2023-05-08T00:04:08.216Z,12.68
2023-05-08T00:06:36.148Z,12.57
2023-05-08T00:09:03.885Z,12.55
2023-05-08T00:11:31.549Z,12.85
2023-05-08T00:13:59.266Z,12.65
2023-05-08T00:16:28.552Z,12.98
2023-05-08T00:18:56.281Z,12.13
2023-05-08T00:21:24.714Z,12.57
2023-05-08T00:23:52.975Z,13.50
2023-05-08T00:26:20.773Z,11.60
2023-05-08T00:28:48.543Z,12.38
2023-05-08T00:31:16.626Z,12.27
2023-05-08T00:33:45.765Z,12.70
2023-05-08T00:36:15.724Z,11.80
2023-05-08T00:38:43.736Z,12.57
2023-05-08T00:41:11.642Z,13.20
2023-05-08T00:43:40.098Z,13.33
2023-05-08T00:46:09.849Z,12.23
2023-05-08T00:48:37.693Z,13.35
2023-05-08T00:51:09.084Z,12.90
2023-05-08T00:53:38.816Z,13.27
2023-05-08T00:56:07.026Z,13.07
2023-05-08T00:58:34.810Z,12.73
2023-05-08T01:01:03.764Z,13.63
2023-05-08T01:03:32.595Z,13.05
2023-05-08T01:06:00.899Z,12.60
2023-05-08T01:08:30.000Z,13.43
2023-05-08T01:11:03.084Z,13.10
2023-05-08T01:13:43.732Z,12.57
2023-05-08T01:16:16.556Z,12.60
2023-05-08T01:18:50.870Z,13.25
2023-05-08T01:21:27.136Z,12.97
2023-05-08T01:24:21.344Z,13.07
2023-05-08T01:27:10.070Z,13.17
2023-05-08T01:30:21.196Z,13.50
2023-05-08T01:32:54.963Z,12.82
2023-05-08T01:35:26.002Z,12.65
2023-05-08T01:37:59.645Z,12.90
2023-05-08T01:40:34.642Z,13.77
2023-05-08T01:43:12.540Z,13.23
2023-05-08T01:45:42.084Z,12.85
2023-05-08T01:48:16.182Z,12.77
2023-05-08T01:50:47.138Z,13.18
2023-05-08T01:53:21.379Z,13.82
2023-05-08T01:55:51.575Z,13.55
2023-05-08T01:58:19.778Z,13.40
2023-05-08T02:00:48.241Z,13.15
2023-05-08T02:03:18.136Z,12.88
2023-05-08T02:05:46.483Z,13.05
2023-05-08T02:08:15.901Z,13.27
2023-05-08T02:10:44.200Z,13.27
2023-05-08T02:13:12.793Z,13.07
2023-05-08T02:15:40.941Z,12.97
2023-05-08T02:18:09.780Z,13.30
2023-05-08T02:20:40.099Z,13.75
2023-05-08T02:23:08.588Z,12.48
2023-05-08T02:25:36.961Z,13.47
2023-05-08T02:28:04.807Z,12.77
2023-05-08T02:30:32.694Z,13.35
2023-05-08T02:33:01.334Z,12.85
2023-05-08T02:35:30.929Z,12.65
2023-05-08T02:38:00.748Z,12.88
2023-05-08T02:40:30.436Z,12.25
2023-05-08T02:42:58.153Z,12.48
2023-05-08T02:45:27.871Z,13.00
2023-05-08T02:48:01.776Z,12.93
2023-05-08T02:50:35.996Z,12.80
2023-05-08T02:53:08.765Z,12.90
2023-05-08T02:55:41.380Z,12.48
2023-05-08T02:58:15.164Z,12.70
2023-05-08T03:00:48.084Z,12.85
2023-05-08T03:03:21.015Z,12.30
2023-05-08T03:05:52.719Z,13.23
2023-05-08T03:08:26.780Z,13.55
2023-05-08T03:10:58.402Z,13.35
2023-05-08T03:13:27.134Z,12.90
2023-05-08T03:15:56.582Z,13.52
2023-05-08T03:18:27.858Z,12.70
2023-05-08T03:20:56.400Z,13.35
2023-05-08T03:23:27.717Z,12.60
2023-05-08T03:25:56.557Z,12.43
2023-05-08T03:28:24.810Z,12.68
2023-05-08T03:30:53.244Z,12.75
2023-05-08T03:33:22.058Z,12.93
2023-05-08T03:35:50.660Z,12.90
2023-05-08T03:38:18.396Z,13.00
2023-05-08T03:40:49.864Z,13.50
2023-05-08T03:43:19.132Z,13.50
2023-05-08T03:45:47.135Z,12.60
2023-05-08T03:48:15.282Z,12.73
2023-05-08T03:50:43.108Z,12.27
2023-05-08T03:53:10.781Z,12.60
2023-05-08T03:55:39.341Z,12.82
2023-05-08T03:58:14.750Z,13.17
2023-05-08T04:00:55.455Z,12.18
2023-05-08T04:03:26.583Z,12.20
2023-05-08T04:06:01.000Z,12.48
2023-05-08T04:08:30.139Z,12.65
2023-05-08T04:11:05.617Z,12.40
2023-05-08T04:13:38.329Z,12.57
2023-05-08T04:16:10.327Z,11.68
2023-05-08T04:18:39.321Z,11.27
2023-05-08T04:21:10.629Z,11.13
2023-05-08T04:23:40.452Z,10.23
2023-05-08T04:26:08.991Z,10.18
2023-05-08T04:28:38.241Z,10.77
2023-05-08T04:31:06.554Z,10.52
2023-05-08T04:33:35.138Z,9.57
2023-05-08T04:36:03.676Z,9.98
2023-05-08T04:38:31.475Z,9.70
2023-05-08T04:40:59.223Z,9.82
2023-05-08T04:43:27.004Z,9.60
2023-05-08T04:45:56.090Z,10.10
2023-05-08T04:48:24.884Z,10.63
2023-05-08T04:50:52.546Z,9.38
2023-05-08T04:53:20.236Z,9.88
2023-05-08T04:55:47.890Z,9.77
2023-05-08T04:58:15.562Z,9.82
2023-05-08T05:00:43.281Z,9.05
2023-05-08T05:03:12.402Z,8.77
2023-05-08T05:05:40.173Z,8.57
2023-05-08T05:08:07.883Z,8.32
2023-05-08T05:10:35.563Z,8.70
2023-05-08T05:13:03.301Z,8.90
2023-05-08T05:15:31.019Z,8.55
2023-05-08T05:17:58.749Z,11.55
2023-05-08T05:20:28.633Z,8.32
2023-05-08T05:22:56.359Z,8.35
2023-05-08T05:25:24.068Z,8.13
2023-05-08T05:27:51.809Z,8.68
2023-05-08T05:30:19.727Z,8.57
2023-05-08T05:32:47.732Z,6.25
2023-05-08T05:35:15.713Z,8.68
2023-05-08T05:37:44.922Z,13.38
2023-05-08T05:40:13.474Z,10.55
2023-05-08T05:42:41.245Z,9.07
2023-05-08T05:45:09.958Z,8.95
2023-05-08T05:47:38.095Z,8.70
2023-05-08T05:50:06.515Z,9.00
2023-05-08T05:52:34.265Z,9.23
2023-05-08T05:55:03.345Z,9.00
2023-05-08T05:57:31.028Z,8.90
2023-05-08T05:59:59.711Z,9.65
2023-05-08T06:02:27.625Z,9.48
2023-05-08T06:04:55.367Z,8.88
2023-05-08T06:07:23.069Z,8.73
2023-05-08T06:09:51.244Z,9.10
2023-05-08T06:12:20.493Z,9.57
2023-05-08T06:14:48.219Z,7.97
2023-05-08T06:17:15.976Z,9.05
2023-05-08T06:19:43.768Z,10.15
2023-05-08T06:22:11.442Z,9.32
2023-05-08T06:24:41.907Z,12.98
2023-05-08T06:27:09.570Z,9.68
2023-05-08T06:29:38.813Z,9.63
2023-05-08T06:32:07.622Z,10.40
2023-05-08T06:34:35.489Z,10.00
2023-05-08T06:37:03.263Z,10.35
2023-05-08T06:39:30.917Z,10.13
2023-05-08T06:41:58.635Z,10.50
2023-05-08T06:44:26.360Z,10.45
2023-05-08T06:46:55.819Z,10.20
2023-05-08T06:49:24.047Z,9.20
2023-05-08T06:51:51.782Z,9.93
2023-05-08T06:54:19.485Z,9.47
2023-05-08T06:56:47.183Z,9.68
2023-05-08T06:59:14.995Z,10.43
2023-05-08T07:01:42.919Z,9.50
2023-05-08T07:04:12.509Z,9.90
2023-05-08T07:06:40.208Z,10.05
2023-05-08T07:09:08.065Z,10.25
2023-05-08T07:11:35.818Z,9.98
2023-05-08T07:14:03.585Z,9.57
2023-05-08T07:16:31.289Z,10.02
2023-05-08T07:18:59.153Z,10.65
2023-05-08T07:21:29.409Z,10.23
2023-05-08T07:23:57.236Z,10.60
2023-05-08T07:26:24.858Z,11.40
2023-05-08T07:28:54.221Z,10.83
2023-05-08T07:31:22.189Z,11.93
2023-05-08T07:33:50.030Z,10.67
2023-05-08T07:36:17.749Z,12.20
2023-05-08T07:38:46.857Z,11.90
2023-05-08T07:41:14.739Z,11.60
2023-05-08T07:46:18.867Z,12.63
2023-05-08T07:48:46.634Z,12.63
2023-05-08T07:51:14.632Z,12.13
2023-05-08T07:53:42.509Z,12.20
2023-05-08T07:56:10.219Z,12.07
2023-05-08T07:58:37.922Z,12.13
2023-05-08T08:01:05.821Z,12.25
2023-05-08T08:03:34.923Z,12.27
2023-05-08T08:06:02.712Z,11.98
2023-05-08T08:08:30.389Z,11.75
2023-05-08T08:10:58.138Z,12.25
2023-05-08T08:13:26.066Z,12.27
2023-05-08T08:15:53.982Z,12.32
2023-05-08T08:18:21.745Z,12.27
2023-05-08T08:20:50.928Z,13.32
2023-05-08T08:23:18.663Z,13.70
2023-05-08T08:27:58.398Z,12.70
2023-05-08T08:30:26.186Z,12.73
2023-05-08T08:32:53.954Z,12.30
2023-05-08T08:35:22.946Z,12.82
2023-05-08T08:37:50.690Z,13.13
2023-05-08T08:40:18.328Z,13.93
2023-05-08T08:42:47.165Z,14.43
2023-05-08T08:45:16.722Z,13.43
2023-05-08T08:47:46.535Z,13.82
2023-05-08T08:50:15.647Z,13.40
2023-05-08T08:52:48.888Z,13.70
2023-05-08T08:55:17.789Z,12.80
2023-05-08T08:57:54.788Z,13.00
2023-05-08T09:00:24.681Z,13.40
2023-05-08T09:02:52.681Z,13.25
2023-05-08T09:05:23.537Z,13.07
2023-05-08T09:07:51.857Z,15.50
2023-05-08T09:10:19.783Z,15.80
2023-05-08T09:12:49.007Z,15.15
2023-05-08T09:15:17.005Z,15.70
2023-05-08T09:17:46.214Z,15.68
2023-05-08T09:20:15.621Z,15.48
2023-05-08T09:22:44.411Z,16.38
2023-05-08T09:25:12.416Z,17.05
2023-05-08T09:27:40.388Z,15.83
2023-05-08T09:30:10.117Z,16.48
2023-05-08T09:32:39.921Z,16.63
2023-05-08T09:35:10.457Z,16.63
2023-05-08T09:37:39.927Z,17.33
2023-05-08T09:40:15.389Z,17.83
2023-05-08T09:42:43.185Z,17.75
2023-05-08T09:45:12.711Z,17.25
2023-05-08T09:47:49.375Z,17.58
2023-05-08T09:50:18.693Z,18.23
2023-05-08T09:52:48.413Z,19.48
2023-05-08T09:55:16.262Z,19.15
2023-05-08T09:57:54.263Z,19.60
2023-05-08T10:00:22.802Z,19.77
2023-05-08T10:02:59.078Z,20.92
2023-05-08T10:05:30.051Z,20.10
